Time;durP1;ratioP1;P1;durP2;ratioP2;P2;SDS_P1;SDS_P2;PMS_P1;PMS_P2;Temp;Humidity;BMP_temperature;BMP_pressure;BME280_temperature;BME280_humidity;BME280_pressure;Samples;Min_cycle;Max_cycle;Signal;HPM_P1;HPM_P2
2022/07/19 00:01:39;;;;;;;3.00;2.80;;;25.40;49.10;;;;;;5051292;28;20230;-70
2022/07/19 00:04:06;;;;;;;2.77;2.57;;;25.30;49.10;;;;;;5049268;28;20211;-70
2022/07/19 00:06:32;;;;;;;6.47;2.47;;;25.30;49.10;;;;;;5042450;28;20230;-70
2022/07/19 00:08:58;;;;;;;2.13;1.93;;;25.30;49.10;;;;;;5057255;28;20440;-70
2022/07/19 00:11:24;;;;;;;8.30;2.97;;;25.30;49.30;;;;;;5047129;28;20245;-70
2022/07/19 00:13:49;;;;;;;5.43;3.20;;;25.20;49.20;;;;;;5051333;28;20472;-70
2022/07/19 00:16:15;;;;;;;3.47;2.77;;;25.10;49.30;;;;;;5052163;28;20682;-70
2022/07/19 00:18:41;;;;;;;2.80;2.60;;;25.00;49.40;;;;;;5031366;28;20225;-70
2022/07/19 00:21:07;;;;;;;2.63;2.43;;;25.00;49.40;;;;;;5048063;28;20222;-70
2022/07/19 00:23:33;;;;;;;3.47;3.17;;;25.00;49.50;;;;;;5033391;28;20533;-69
2022/07/19 00:26:00;;;;;;;4.60;2.53;;;25.00;49.50;;;;;;5051535;28;20540;-71
2022/07/19 00:28:26;;;;;;;2.73;2.50;;;24.90;49.60;;;;;;5052212;28;20219;-69
2022/07/19 00:30:51;;;;;;;3.10;2.70;;;24.80;49.70;;;;;;5059725;28;20453;-70
2022/07/19 00:33:17;;;;;;;3.03;2.20;;;24.80;49.80;;;;;;5052027;28;20225;-70
2022/07/19 00:35:43;;;;;;;2.50;2.30;;;24.80;49.80;;;;;;5044768;28;20218;-70
2022/07/19 00:38:12;;;;;;;4.00;2.77;;;24.80;49.80;;;;;;5069989;28;20226;-69
2022/07/19 00:40:40;;;;;;;5.90;2.97;;;24.60;49.80;;;;;;5076875;28;20759;-70
2022/07/19 00:43:07;;;;;;;2.77;2.53;;;24.30;50.00;;;;;;5051876;28;20444;-70
2022/07/19 00:45:34;;;;;;;2.97;2.77;;;24.30;50.10;;;;;;5064611;28;20470;-71
2022/07/19 00:48:00;;;;;;;3.07;2.63;;;24.40;50.20;;;;;;5042705;28;20450;-70
2022/07/19 00:50:26;;;;;;;3.03;2.73;;;24.40;50.10;;;;;;5035263;28;20536;-70
2022/07/19 00:53:00;;;;;;;2.40;2.20;;;24.40;50.00;;;;;;5051310;28;20490;-70
2022/07/19 00:55:28;;;;;;;3.07;2.80;;;24.40;50.10;;;;;;5035071;28;20453;-70
2022/07/19 00:57:57;;;;;;;6.07;2.70;;;24.30;50.20;;;;;;5037652;28;20463;-69
2022/07/19 01:00:23;;;;;;;3.60;3.10;;;24.40;50.20;;;;;;5061126;28;20476;-69
2022/07/19 01:02:51;;;;;;;3.40;2.93;;;24.40;50.10;;;;;;5067432;28;20460;-70
2022/07/19 01:05:18;;;;;;;2.80;2.60;;;24.30;50.10;;;;;;5050842;28;20514;-69
2022/07/19 01:07:44;;;;;;;3.23;3.03;;;24.20;50.10;;;;;;5064703;28;20510;-70
2022/07/19 01:10:11;;;;;;;8.20;3.20;;;24.10;50.30;;;;;;5051960;28;20952;-69
2022/07/19 01:12:38;;;;;;;4.73;3.00;;;24.10;50.30;;;;;;5077223;28;20261;-69
2022/07/19 01:15:14;;;;;;;3.70;3.17;;;24.10;50.50;;;;;;5034342;28;20460;-69
2022/07/19 01:17:39;;;;;;;3.67;3.37;;;24.00;50.50;;;;;;5080401;28;20514;-70
2022/07/19 01:20:07;;;;;;;3.30;3.10;;;23.80;50.60;;;;;;5086636;28;20455;-70
2022/07/19 01:22:32;;;;;;;4.17;3.10;;;23.80;50.80;;;;;;5043005;28;20222;-69
2022/07/19 01:24:58;;;;;;;11.30;3.83;;;23.90;50.70;;;;;;5034596;28;20447;-70
2022/07/19 01:27:24;;;;;;;3.17;2.97;;;23.90;50.60;;;;;;5055275;28;20590;-70
2022/07/19 01:29:49;;;;;;;5.63;2.97;;;23.90;50.60;;;;;;5072551;28;20230;-70
2022/07/19 01:32:15;;;;;;;3.20;2.90;;;23.90;50.60;;;;;;5088630;28;20218;-70
2022/07/19 01:34:41;;;;;;;3.23;2.80;;;23.90;50.60;;;;;;5034091;28;20291;-70
2022/07/19 01:37:06;;;;;;;3.30;3.00;;;23.90;50.60;;;;;;5054733;28;20264;-69
2022/07/19 01:39:32;;;;;;;3.30;3.10;;;23.90;50.40;;;;;;5048516;28;20241;-69
2022/07/19 01:41:58;;;;;;;3.53;3.00;;;23.80;50.60;;;;;;5033195;28;20338;-70
2022/07/19 01:44:24;;;;;;;3.80;3.13;;;23.80;50.90;;;;;;5032653;28;20230;-69
2022/07/19 01:46:49;;;;;;;2.80;2.60;;;23.80;50.80;;;;;;5061003;28;20233;-70
2022/07/19 01:49:15;;;;;;;6.40;2.83;;;23.70;50.70;;;;;;5054965;28;20219;-69
2022/07/19 01:51:40;;;;;;;3.30;3.10;;;23.70;50.80;;;;;;5076088;28;20214;-71
2022/07/19 01:54:06;;;;;;;2.97;2.77;;;23.60;50.80;;;;;;5076339;28;20221;-70
2022/07/19 01:56:32;;;;;;;3.27;3.07;;;23.60;50.80;;;;;;5044385;28;20238;-69
2022/07/19 01:58:57;;;;;;;6.40;2.50;;;23.50;50.90;;;;;;5054094;28;20217;-69
2022/07/19 02:01:23;;;;;;;2.87;2.67;;;23.20;51.00;;;;;;5062333;28;20213;-69
2022/07/19 02:03:49;;;;;;;2.93;2.73;;;23.30;51.20;;;;;;5064423;28;20227;-70
2022/07/19 02:06:14;;;;;;;2.80;2.60;;;23.30;51.20;;;;;;5063314;28;20284;-69
2022/07/19 02:08:41;;;;;;;3.10;2.90;;;23.30;51.20;;;;;;5024930;28;20218;-69
2022/07/19 02:13:51;;;;;;;3.33;2.70;;;23.30;51.10;;;;;;5047283;28;20453;-70
2022/07/19 02:16:17;;;;;;;3.20;2.90;;;23.30;51.20;;;;;;5052885;28;21017;-70
2022/07/19 02:18:43;;;;;;;3.47;2.97;;;23.20;51.30;;;;;;5052741;28;20744;-70
2022/07/19 02:21:09;;;;;;;3.07;2.80;;;23.20;51.50;;;;;;5071792;28;20302;-69
2022/07/19 02:23:35;;;;;;;3.00;2.80;;;23.20;51.40;;;;;;5051291;28;20242;-69
2022/07/19 02:26:01;;;;;;;3.50;3.00;;;23.20;51.40;;;;;;5053425;28;20218;-70
2022/07/19 02:28:26;;;;;;;6.17;3.50;;;23.10;51.30;;;;;;5053741;28;20510;-70
2022/07/19 02:30:52;;;;;;;4.50;3.17;;;23.10;51.20;;;;;;5050955;28;20230;-70
2022/07/19 02:33:18;;;;;;;4.43;3.07;;;23.10;51.30;;;;;;5046013;28;20224;-70
2022/07/19 02:35:43;;;;;;;3.00;2.77;;;23.10;51.30;;;;;;5085845;28;20226;-70
2022/07/19 02:38:09;;;;;;;3.30;3.00;;;23.10;51.40;;;;;;5071230;28;20294;-70
2022/07/19 02:40:35;;;;;;;3.20;2.90;;;23.00;51.40;;;;;;5055042;28;20693;-69
2022/07/19 02:43:00;;;;;;;2.87;2.67;;;23.00;51.50;;;;;;5036500;28;20207;-69
2022/07/19 02:45:26;;;;;;;3.27;3.03;;;22.90;51.40;;;;;;5054152;28;20216;-69
2022/07/19 02:47:52;;;;;;;3.20;2.90;;;22.90;51.50;;;;;;5045113;28;20231;-69
2022/07/19 02:50:17;;;;;;;4.80;3.17;;;22.90;51.60;;;;;;5037061;28;20313;-69
2022/07/19 02:52:43;;;;;;;6.27;2.80;;;22.80;51.50;;;;;;5047954;28;20253;-70
2022/07/19 02:55:09;;;;;;;4.07;3.20;;;22.80;51.60;;;;;;5036659;28;20302;-70
2022/07/19 02:57:34;;;;;;;3.63;3.30;;;22.70;51.60;;;;;;5055032;28;20214;-69
2022/07/19 03:00:00;;;;;;;3.13;2.93;;;22.70;51.80;;;;;;5071280;28;20614;-69
2022/07/19 03:02:26;;;;;;;3.60;3.30;;;22.70;51.80;;;;;;5052653;28;20286;-70
2022/07/19 03:04:52;;;;;;;3.67;3.20;;;22.60;51.70;;;;;;5039046;28;20580;-70
2022/07/19 03:07:17;;;;;;;4.90;3.90;;;22.60;51.80;;;;;;5036220;28;20229;-69
2022/07/19 03:09:43;;;;;;;6.93;4.07;;;22.60;51.90;;;;;;5052995;28;20219;-69
2022/07/19 03:12:09;;;;;;;5.70;3.10;;;22.60;51.90;;;;;;5072697;28;20214;-70
2022/07/19 03:14:34;;;;;;;4.23;3.30;;;22.50;51.80;;;;;;5041626;28;20215;-69
2022/07/19 03:17:00;;;;;;;3.30;3.10;;;22.50;51.90;;;;;;5070372;28;20889;-69
2022/07/19 03:19:26;;;;;;;3.17;2.97;;;22.40;51.90;;;;;;5037133;28;20226;-69
2022/07/19 03:21:53;;;;;;;3.30;3.10;;;22.40;51.80;;;;;;5076981;28;20349;-69
2022/07/19 03:24:19;;;;;;;3.50;3.20;;;22.40;52.00;;;;;;5048907;28;20584;-70
2022/07/19 03:26:44;;;;;;;3.20;2.87;;;22.40;52.40;;;;;;5032608;28;20519;-70
2022/07/19 03:29:11;;;;;;;3.60;3.30;;;22.30;52.00;;;;;;5035988;28;20264;-69
2022/07/19 03:31:38;;;;;;;4.33;3.33;;;22.30;52.10;;;;;;5064248;28;20485;-70
2022/07/19 03:34:04;;;;;;;3.57;3.10;;;22.30;52.10;;;;;;5042287;28;20483;-70
2022/07/19 03:36:29;;;;;;;3.40;3.00;;;22.20;52.00;;;;;;5053164;28;20246;-70
2022/07/19 03:38:56;;;;;;;3.67;3.23;;;22.20;52.20;;;;;;5060605;28;20686;-69
2022/07/19 03:41:22;;;;;;;3.67;2.83;;;22.20;52.30;;;;;;5068843;28;20250;-69
2022/07/19 03:43:47;;;;;;;3.27;2.97;;;22.20;52.20;;;;;;5059212;28;20453;-69
2022/07/19 03:46:13;;;;;;;6.60;3.00;;;22.10;52.30;;;;;;5052626;28;20222;-70
2022/07/19 03:48:39;;;;;;;3.00;2.80;;;22.10;52.40;;;;;;5034735;28;20941;-69
2022/07/19 03:51:05;;;;;;;3.17;2.80;;;22.00;52.30;;;;;;5053376;28;20229;-70
2022/07/19 03:53:31;;;;;;;4.80;3.37;;;22.00;52.30;;;;;;5051486;28;20453;-71
2022/07/19 03:55:57;;;;;;;4.60;2.93;;;22.00;52.60;;;;;;5037160;28;20221;-69
2022/07/19 03:58:22;;;;;;;4.40;3.20;;;22.00;52.40;;;;;;5042409;28;20266;-69
2022/07/19 04:00:48;;;;;;;3.13;2.83;;;22.00;52.50;;;;;;5057808;28;20215;-69
2022/07/19 04:03:14;;;;;;;3.60;3.30;;;22.00;52.50;;;;;;5035560;28;20218;-70
2022/07/19 04:05:39;;;;;;;3.33;3.03;;;21.90;52.40;;;;;;5051990;28;20266;-69
2022/07/19 04:08:05;;;;;;;3.53;3.23;;;21.90;52.70;;;;;;5055795;28;20313;-70
2022/07/19 04:10:31;;;;;;;8.13;4.00;;;21.80;52.80;;;;;;5052274;28;20364;-70
2022/07/19 04:12:56;;;;;;;7.87;3.70;;;21.70;53.00;;;;;;5058503;28;20207;-69
2022/07/19 04:15:22;;;;;;;4.10;3.50;;;21.70;52.90;;;;;;5066174;28;20265;-70
2022/07/19 04:17:48;;;;;;;4.03;3.23;;;21.70;52.90;;;;;;5039120;28;20222;-69
2022/07/19 04:20:13;;;;;;;5.00;3.37;;;21.70;53.00;;;;;;5069261;28;20298;-69
2022/07/19 04:22:39;;;;;;;7.67;3.50;;;21.80;53.00;;;;;;5031350;28;20231;-69
2022/07/19 04:25:06;;;;;;;5.83;3.30;;;21.70;53.10;;;;;;5034673;28;20569;-69
2022/07/19 04:27:32;;;;;;;4.27;3.60;;;21.70;53.00;;;;;;5058164;28;20227;-68
2022/07/19 04:29:58;;;;;;;3.87;3.17;;;21.70;53.00;;;;;;5074378;28;20437;-69
2022/07/19 04:32:23;;;;;;;3.60;2.90;;;21.80;53.10;;;;;;5088364;28;20532;-69
2022/07/19 04:34:49;;;;;;;7.60;2.90;;;21.70;53.00;;;;;;5070955;28;20557;-69
2022/07/19 04:37:15;;;;;;;3.57;2.87;;;21.70;53.30;;;;;;5060768;28;20238;-70
2022/07/19 04:39:41;;;;;;;3.97;3.40;;;21.70;53.30;;;;;;5028411;28;20806;-69
2022/07/19 04:42:07;;;;;;;3.73;3.13;;;21.70;53.30;;;;;;5063836;28;20459;-69
2022/07/19 04:44:33;;;;;;;3.20;2.90;;;21.70;53.40;;;;;;5049449;28;20214;-69
2022/07/19 04:46:59;;;;;;;4.40;3.40;;;21.60;53.50;;;;;;5030766;28;20232;-69
2022/07/19 04:49:25;;;;;;;4.30;3.60;;;21.70;53.60;;;;;;5043153;28;20507;-69
2022/07/19 04:51:50;;;;;;;3.70;3.37;;;21.70;53.60;;;;;;5030990;28;20705;-69
2022/07/19 04:54:16;;;;;;;4.70;3.30;;;21.70;53.60;;;;;;5041216;28;20207;-69
2022/07/19 04:56:42;;;;;;;3.33;3.03;;;21.70;53.80;;;;;;5066513;28;20215;-69
2022/07/19 04:59:08;;;;;;;3.90;3.00;;;21.70;53.90;;;;;;5054683;28;20638;-69
2022/07/19 05:01:34;;;;;;;3.77;3.40;;;21.80;54.10;;;;;;5038211;28;20580;-69
2022/07/19 05:04:00;;;;;;;3.70;2.87;;;21.80;54.30;;;;;;5068266;28;20210;-69
2022/07/19 05:06:25;;;;;;;7.90;3.20;;;21.80;54.20;;;;;;5068559;28;20823;-69
2022/07/19 05:08:52;;;;;;;3.37;2.70;;;21.80;54.90;;;;;;5072965;28;20318;-69
2022/07/19 05:11:19;;;;;;;3.67;3.23;;;21.90;54.90;;;;;;5055273;28;20215;-69
2022/07/19 05:13:45;;;;;;;4.10;3.30;;;21.90;55.00;;;;;;5053656;28;20461;-69
2022/07/19 05:16:10;;;;;;;5.83;3.17;;;21.90;54.40;;;;;;5046084;28;20503;-69
2022/07/19 05:18:36;;;;;;;6.20;3.27;;;21.90;54.50;;;;;;5072626;28;20584;-70
2022/07/19 05:21:02;;;;;;;6.10;3.13;;;21.90;54.40;;;;;;5053746;28;20227;-69
2022/07/19 05:23:28;;;;;;;4.20;3.07;;;21.90;54.30;;;;;;5070560;28;20222;-69
2022/07/19 05:25:54;;;;;;;4.63;3.63;;;21.90;54.20;;;;;;5050894;28;20210;-70
2022/07/19 05:28:19;;;;;;;4.60;3.33;;;21.90;54.60;;;;;;5027467;28;20480;-71
2022/07/19 05:30:45;;;;;;;4.37;3.10;;;22.00;54.50;;;;;;5036463;28;20456;-70
2022/07/19 05:33:11;;;;;;;3.90;3.37;;;22.00;54.50;;;;;;5067659;28;20975;-70
2022/07/19 05:35:38;;;;;;;3.80;3.10;;;22.00;54.40;;;;;;5063152;28;20218;-71
2022/07/19 05:38:03;;;;;;;4.47;3.57;;;22.00;54.40;;;;;;5062314;28;20230;-69
2022/07/19 05:40:30;;;;;;;8.90;3.83;;;22.00;54.40;;;;;;5049088;28;20479;-70
2022/07/19 05:42:55;;;;;;;8.40;3.90;;;22.10;54.50;;;;;;5052056;28;20215;-70
2022/07/19 05:45:21;;;;;;;8.37;3.57;;;22.10;54.80;;;;;;5044135;28;20635;-69
2022/07/19 05:47:47;;;;;;;3.50;2.83;;;22.10;54.40;;;;;;5033661;28;20230;-69
2022/07/19 05:50:13;;;;;;;6.90;3.47;;;22.10;54.40;;;;;;5056187;28;20222;-69
2022/07/19 05:52:38;;;;;;;4.60;3.87;;;22.20;54.70;;;;;;5062541;28;20257;-70
2022/07/19 05:55:06;;;;;;;11.93;4.07;;;22.20;54.80;;;;;;5062674;28;20225;-70
2022/07/19 05:57:31;;;;;;;3.73;3.43;;;22.30;54.70;;;;;;5055689;28;20211;-69
2022/07/19 05:59:57;;;;;;;6.60;3.40;;;22.30;54.60;;;;;;5042157;28;20440;-69
2022/07/19 06:02:23;;;;;;;5.13;3.60;;;22.30;55.10;;;;;;5053848;28;20226;-69
2022/07/19 06:04:48;;;;;;;5.17;3.30;;;22.40;54.80;;;;;;5046587;28;20215;-70
2022/07/19 06:07:14;;;;;;;3.47;3.10;;;22.50;54.90;;;;;;5045266;28;20235;-69
2022/07/19 06:09:40;;;;;;;3.63;3.10;;;22.50;55.20;;;;;;5036461;28;20234;-70
2022/07/19 06:12:05;;;;;;;4.03;3.73;;;22.50;55.10;;;;;;5048815;28;20223;-69
2022/07/19 06:14:31;;;;;;;7.57;3.30;;;22.60;55.70;;;;;;5052926;28;20217;-69
2022/07/19 06:16:57;;;;;;;4.40;3.53;;;22.60;55.90;;;;;;5036052;28;20300;-69
2022/07/19 06:19:23;;;;;;;4.93;4.10;;;22.70;55.90;;;;;;5032611;28;20277;-69
2022/07/19 06:21:48;;;;;;;6.07;3.23;;;22.80;56.10;;;;;;5052259;28;20272;-70
2022/07/19 06:24:14;;;;;;;4.60;3.50;;;22.90;56.30;;;;;;5052655;28;20221;-69
2022/07/19 06:26:39;;;;;;;6.77;3.27;;;23.00;56.50;;;;;;5061313;28;20230;-69
2022/07/19 06:29:06;;;;;;;9.87;3.67;;;23.10;56.20;;;;;;5030545;28;20218;-69
2022/07/19 06:31:32;;;;;;;4.20;3.07;;;23.10;56.20;;;;;;5047411;28;20250;-69
2022/07/19 06:33:58;;;;;;;3.63;3.33;;;23.20;56.20;;;;;;5044062;28;20476;-69
2022/07/19 06:36:24;;;;;;;4.20;3.80;;;23.30;56.20;;;;;;5066965;28;20222;-69
2022/07/19 06:38:49;;;;;;;3.43;3.13;;;23.30;55.90;;;;;;5053601;28;20457;-69
2022/07/19 06:41:16;;;;;;;4.70;3.40;;;23.30;56.00;;;;;;5045117;28;20292;-70
2022/07/19 06:43:42;;;;;;;3.33;3.03;;;23.40;56.30;;;;;;5057676;28;20702;-69
2022/07/19 06:46:08;;;;;;;3.43;3.13;;;23.50;56.30;;;;;;5047327;28;20468;-69
2022/07/19 06:48:35;;;;;;;4.40;3.00;;;23.60;56.30;;;;;;5046596;28;20987;-70
2022/07/19 06:51:01;;;;;;;3.67;3.33;;;23.70;56.30;;;;;;5051134;28;20464;-69
2022/07/19 06:53:26;;;;;;;3.33;3.03;;;23.80;56.30;;;;;;5042941;28;20453;-69
2022/07/19 06:55:52;;;;;;;10.17;3.70;;;23.90;56.20;;;;;;5061489;28;20687;-70
2022/07/19 06:58:18;;;;;;;4.20;3.50;;;23.90;56.30;;;;;;5029150;28;20633;-69
2022/07/19 07:00:44;;;;;;;4.00;3.10;;;24.10;56.10;;;;;;5064668;28;20218;-69
2022/07/19 07:03:09;;;;;;;3.50;3.27;;;24.20;55.90;;;;;;5049649;28;20525;-70
2022/07/19 07:05:36;;;;;;;3.97;3.33;;;24.30;55.90;;;;;;5040161;28;20214;-69
2022/07/19 07:08:01;;;;;;;5.63;3.43;;;24.40;55.90;;;;;;5042023;28;20209;-69
2022/07/19 07:10:27;;;;;;;3.83;3.43;;;24.50;56.00;;;;;;5058571;28;21031;-69
2022/07/19 07:12:53;;;;;;;3.53;3.23;;;24.50;55.80;;;;;;5070020;28;20223;-70
2022/07/19 07:15:19;;;;;;;3.10;2.90;;;24.60;55.70;;;;;;5048456;28;20305;-69
2022/07/19 07:17:44;;;;;;;3.47;3.17;;;24.70;55.80;;;;;;5034335;28;20588;-70
2022/07/19 07:20:11;;;;;;;5.90;3.40;;;24.80;55.60;;;;;;5064021;28;20218;-70
2022/07/19 07:22:37;;;;;;;3.50;2.90;;;24.90;55.70;;;;;;5059710;28;20202;-70
2022/07/19 07:25:03;;;;;;;4.10;2.77;;;25.00;55.60;;;;;;5057918;28;20480;-69
2022/07/19 07:27:29;;;;;;;4.40;3.10;;;25.20;55.60;;;;;;5045213;28;20222;-69
2022/07/19 07:29:55;;;;;;;3.93;3.60;;;25.30;55.40;;;;;;5072313;28;20466;-69
2022/07/19 07:32:21;;;;;;;2.93;2.63;;;25.40;55.40;;;;;;5037355;28;20218;-69
2022/07/19 07:34:46;;;;;;;3.03;2.83;;;25.50;55.10;;;;;;5039602;28;20227;-69
2022/07/19 07:37:12;;;;;;;5.53;3.30;;;25.60;55.10;;;;;;5047214;28;20227;-69
2022/07/19 07:39:38;;;;;;;3.33;2.97;;;25.70;55.10;;;;;;5069599;28;20214;-69
2022/07/19 07:42:05;;;;;;;3.17;2.90;;;25.80;54.90;;;;;;5026533;28;20215;-70
2022/07/19 07:44:31;;;;;;;3.27;2.97;;;26.00;54.90;;;;;;5025988;28;20453;-69
2022/07/19 07:46:57;;;;;;;5.93;3.17;;;26.10;54.90;;;;;;5040896;28;20491;-70
2022/07/19 07:49:23;;;;;;;4.90;3.30;;;26.10;54.90;;;;;;5046155;28;20462;-70
2022/07/19 07:51:49;;;;;;;4.20;3.00;;;26.20;54.80;;;;;;5071633;28;21311;-70
2022/07/19 07:54:15;;;;;;;3.80;3.50;;;26.30;54.80;;;;;;5053343;28;20229;-69
2022/07/19 07:56:41;;;;;;;3.53;3.23;;;26.50;54.90;;;;;;5057933;28;20220;-70
2022/07/19 07:59:07;;;;;;;3.03;2.83;;;26.50;54.70;;;;;;5063170;28;20223;-69
2022/07/19 08:01:34;;;;;;;5.63;3.90;;;26.70;54.70;;;;;;5051873;28;20464;-69
2022/07/19 08:04:00;;;;;;;5.87;2.90;;;26.80;54.60;;;;;;5045183;28;20213;-69
2022/07/19 08:06:25;;;;;;;4.37;3.27;;;26.80;54.40;;;;;;5035375;28;20475;-68
2022/07/19 08:08:51;;;;;;;3.50;3.30;;;26.80;54.40;;;;;;5043245;28;20523;-70
2022/07/19 08:11:17;;;;;;;3.47;2.70;;;26.90;54.50;;;;;;5042078;28;20277;-70
2022/07/19 08:13:43;;;;;;;3.40;3.10;;;27.00;54.50;;;;;;5049413;28;20239;-70
2022/07/19 08:16:08;;;;;;;3.63;3.33;;;27.10;54.40;;;;;;5029022;28;20302;-70
2022/07/19 08:18:34;;;;;;;7.22;3.45;;;27.20;54.10;;;;;;5027838;28;20282;-70
2022/07/19 08:21:00;;;;;;;4.50;2.93;;;27.20;54.30;;;;;;5036361;28;20737;-69
2022/07/19 08:23:25;;;;;;;11.33;3.37;;;27.40;54.40;;;;;;5060806;28;20222;-69
2022/07/19 08:25:51;;;;;;;5.10;3.28;;;27.50;53.90;;;;;;5057256;28;20231;-70
2022/07/19 08:28:17;;;;;;;3.78;3.33;;;27.70;53.80;;;;;;5025723;28;20230;-69
2022/07/19 08:30:42;;;;;;;4.10;3.30;;;27.80;53.70;;;;;;5059201;28;20222;-69
2022/07/19 08:33:09;;;;;;;5.80;3.15;;;28.00;53.60;;;;;;5020327;28;20694;-70
2022/07/19 08:35:36;;;;;;;4.60;3.53;;;28.00;53.30;;;;;;5049923;28;20216;-70
2022/07/19 08:38:02;;;;;;;3.38;3.08;;;28.10;53.30;;;;;;5063508;28;20212;-70
2022/07/19 08:40:29;;;;;;;3.95;3.08;;;28.20;53.40;;;;;;5068695;28;20225;-70
2022/07/19 08:42:58;;;;;;;5.00;3.50;;;28.30;53.30;;;;;;5046898;28;20230;-70
2022/07/19 08:45:27;;;;;;;2.80;2.60;;;28.50;53.40;;;;;;5071778;28;20273;-70
2022/07/19 08:47:53;;;;;;;6.05;3.20;;;28.60;53.30;;;;;;5067270;28;20243;-70
2022/07/19 08:50:20;;;;;;;3.00;2.80;;;28.80;53.30;;;;;;5023724;28;20234;-68
2022/07/19 08:52:45;;;;;;;4.10;3.78;;;28.90;52.90;;;;;;5060882;28;20230;-70
2022/07/19 08:55:11;;;;;;;8.65;3.55;;;29.10;52.80;;;;;;5037522;28;20225;-69
2022/07/19 09:00:21;;;;;;;5.95;3.83;;;29.20;52.70;;;;;;5045164;28;20228;-70
2022/07/19 09:02:54;;;;;;;4.47;3.47;;;29.40;52.50;;;;;;5052350;28;20229;-71
2022/07/19 09:05:21;;;;;;;4.90;3.10;;;29.40;52.50;;;;;;5036312;28;20721;-70
2022/07/19 09:08:04;;;;;;;3.92;3.72;;;29.70;52.20;;;;;;5052458;28;20250;-69
2022/07/19 09:10:31;;;;;;;3.75;3.55;;;29.80;52.00;;;;;;5047161;28;20608;-70
2022/07/19 09:13:02;;;;;;;5.28;4.75;;;30.00;52.00;;;;;;5044203;28;20236;-70
2022/07/19 09:15:49;;;;;;;3.85;3.50;;;30.10;51.80;;;;;;5049882;28;20236;-68
2022/07/19 09:18:21;;;;;;;6.63;3.50;;;30.20;51.60;;;;;;5050489;28;20286;-70
2022/07/19 09:20:52;;;;;;;4.00;3.72;;;30.30;51.50;;;;;;5045257;28;20248;-70
2022/07/19 09:23:19;;;;;;;5.82;3.22;;;30.40;51.30;;;;;;5036695;28;20645;-70
2022/07/19 09:25:57;;;;;;;3.83;3.55;;;30.50;51.20;;;;;;5027168;28;20678;-70
2022/07/19 09:28:24;;;;;;;5.45;3.33;;;30.60;51.20;;;;;;5034632;28;20223;-70
2022/07/19 09:30:53;;;;;;;6.10;3.67;;;30.80;50.90;;;;;;5057583;28;20225;-70
2022/07/19 09:33:25;;;;;;;4.00;3.70;;;30.90;50.70;;;;;;5071422;28;20332;-70
2022/07/19 09:35:56;;;;;;;3.55;3.00;;;31.00;50.80;;;;;;5038624;28;20291;-70
2022/07/19 09:38:27;;;;;;;4.07;3.78;;;31.20;50.60;;;;;;5055631;28;20242;-70
2022/07/19 09:41:14;;;;;;;5.93;3.92;;;31.30;50.50;;;;;;5071293;28;20231;-69
2022/07/19 09:44:00;;;;;;;3.92;3.72;;;31.40;50.40;;;;;;5030887;28;20227;-71
2022/07/19 09:46:39;;;;;;;3.40;3.08;;;31.60;49.90;;;;;;5055279;28;20235;-70
2022/07/19 09:49:08;;;;;;;4.35;3.60;;;31.70;50.20;;;;;;5065547;28;20223;-70
2022/07/19 09:51:35;;;;;;;4.40;3.58;;;31.90;49.70;;;;;;5035160;28;20362;-71
2022/07/19 09:54:04;;;;;;;3.58;3.38;;;32.00;49.80;;;;;;5027057;28;20723;-70
2022/07/19 09:56:31;;;;;;;4.38;3.83;;;32.10;49.70;;;;;;5047353;28;20220;-70
2022/07/19 09:58:58;;;;;;;9.88;4.30;;;32.40;49.50;;;;;;5042891;28;20231;-70
2022/07/19 10:01:25;;;;;;;3.50;3.30;;;32.40;49.50;;;;;;5045303;28;20719;-70
2022/07/19 10:03:58;;;;;;;4.22;3.92;;;32.60;49.10;;;;;;5039067;28;20306;-70
2022/07/19 10:06:25;;;;;;;3.88;3.60;;;32.70;48.70;;;;;;5041060;28;20223;-71
2022/07/19 10:08:52;;;;;;;4.20;3.90;;;33.00;48.60;;;;;;5036114;28;20270;-70
2022/07/19 10:11:18;;;;;;;4.28;3.95;;;33.10;48.70;;;;;;5044145;28;20220;-69
2022/07/19 10:13:46;;;;;;;4.53;4.13;;;33.20;48.40;;;;;;5048052;28;20215;-70
2022/07/19 10:16:18;;;;;;;4.13;3.83;;;33.30;48.60;;;;;;5046857;28;20254;-71
2022/07/19 10:19:10;;;;;;;4.60;4.18;;;33.40;48.60;;;;;;5046723;28;20215;-70
2022/07/19 10:21:36;;;;;;;4.00;3.60;;;33.50;48.40;;;;;;5041532;28;20227;-69
2022/07/19 10:24:02;;;;;;;4.13;3.72;;;33.60;48.40;;;;;;5027210;28;20243;-70
2022/07/19 10:26:43;;;;;;;7.47;4.28;;;33.60;48.60;;;;;;5063830;28;20231;-70
2022/07/19 10:29:11;;;;;;;5.53;4.18;;;33.60;48.20;;;;;;5032926;28;20297;-70
2022/07/19 10:31:38;;;;;;;4.03;3.67;;;34.00;47.90;;;;;;5020068;28;20621;-70
2022/07/19 10:34:08;;;;;;;7.95;5.03;;;34.10;48.00;;;;;;5043113;28;20227;-70
2022/07/19 10:36:47;;;;;;;4.07;3.88;;;34.10;47.80;;;;;;5056696;28;20233;-70
2022/07/19 10:39:21;;;;;;;4.55;3.75;;;34.30;47.50;;;;;;5058748;28;20683;-70
2022/07/19 10:42:19;;;;;;;3.88;3.65;;;34.50;46.80;;;;;;5059653;28;20585;-68
2022/07/19 10:44:59;;;;;;;3.95;3.60;;;34.60;46.90;;;;;;5057737;28;20223;-68
2022/07/19 10:47:31;;;;;;;4.05;3.67;;;34.60;46.80;;;;;;5029029;28;20222;-71
2022/07/19 10:50:06;;;;;;;3.92;3.50;;;34.70;46.30;;;;;;5029182;28;20291;-70
2022/07/19 10:52:36;;;;;;;3.85;3.55;;;34.70;46.50;;;;;;5074001;28;20245;-69
2022/07/19 10:55:18;;;;;;;4.30;3.90;;;34.80;45.50;;;;;;5062468;28;20778;-70
2022/07/19 10:57:46;;;;;;;5.50;5.13;;;35.00;45.50;;;;;;5044986;28;20223;-71
2022/07/19 11:00:20;;;;;;;3.55;3.25;;;35.00;45.40;;;;;;5028666;28;20267;-68
2022/07/19 11:02:47;;;;;;;3.55;3.35;;;35.00;45.70;;;;;;5063077;28;20706;-70
2022/07/19 11:05:29;;;;;;;3.65;3.45;;;35.00;45.90;;;;;;5046018;28;20233;-70
2022/07/19 11:07:57;;;;;;;10.02;3.95;;;35.30;44.90;;;;;;5055037;28;20238;-70
2022/07/19 11:10:28;;;;;;;3.70;3.45;;;35.40;44.60;;;;;;5061023;28;20219;-69
2022/07/19 11:12:55;;;;;;;3.92;3.58;;;35.40;45.10;;;;;;5026228;28;20220;-70
2022/07/19 11:15:22;;;;;;;4.18;3.80;;;35.50;44.70;;;;;;5041267;28;20624;-70
2022/07/19 11:18:05;;;;;;;4.30;3.90;;;35.60;45.00;;;;;;5042178;28;20613;-70
2022/07/19 11:20:34;;;;;;;4.47;3.70;;;35.70;44.90;;;;;;5032138;28;20280;-70
2022/07/19 11:23:03;;;;;;;3.88;3.65;;;35.70;44.80;;;;;;5057806;28;20215;-70
2022/07/19 11:25:31;;;;;;;5.90;3.40;;;35.90;43.70;;;;;;5042176;28;20664;-68
2022/07/19 11:27:58;;;;;;;3.67;3.47;;;36.00;43.40;;;;;;5067339;28;20292;-70
2022/07/19 11:30:25;;;;;;;3.58;3.38;;;36.10;43.50;;;;;;5038769;28;20683;-70
2022/07/19 11:33:00;;;;;;;3.95;3.65;;;36.30;43.20;;;;;;5018882;28;20768;-70
2022/07/19 11:35:26;;;;;;;3.95;3.65;;;36.40;42.40;;;;;;5059946;28;20210;-70
2022/07/19 11:37:54;;;;;;;3.88;3.58;;;36.40;42.80;;;;;;5048054;28;20250;-70
2022/07/19 11:40:21;;;;;;;5.13;3.53;;;36.50;42.30;;;;;;5036213;28;20725;-70
2022/07/19 11:42:48;;;;;;;3.63;3.33;;;36.50;42.70;;;;;;5039573;28;20230;-69
2022/07/19 11:45:17;;;;;;;4.20;4.00;;;36.40;42.50;;;;;;5021732;28;20215;-70
2022/07/19 11:47:48;;;;;;;5.22;3.92;;;36.40;42.60;;;;;;5047461;28;20226;-70
2022/07/19 11:50:15;;;;;;;4.30;3.92;;;36.50;42.60;;;;;;5046092;28;20230;-70
2022/07/19 11:52:54;;;;;;;4.18;3.97;;;36.50;42.80;;;;;;5042244;28;20218;-69
2022/07/19 11:55:22;;;;;;;5.53;3.95;;;36.40;42.80;;;;;;5056019;28;20230;-69
2022/07/19 11:57:49;;;;;;;4.13;3.25;;;36.40;43.00;;;;;;5028140;28;20648;-69
2022/07/19 12:00:15;;;;;;;4.13;3.72;;;36.50;42.80;;;;;;5038831;28;20223;-70
2022/07/19 12:02:57;;;;;;;4.32;4.03;;;36.60;42.70;;;;;;5047657;28;20230;-71
2022/07/19 12:05:24;;;;;;;4.38;3.95;;;36.80;43.20;;;;;;5055596;28;20219;-70
2022/07/19 12:07:51;;;;;;;4.97;4.47;;;37.00;43.00;;;;;;5045407;28;20238;-70
2022/07/19 12:10:40;;;;;;;4.35;3.95;;;37.20;43.10;;;;;;5042433;28;20223;-70
2022/07/19 12:13:09;;;;;;;4.47;4.13;;;37.20;43.10;;;;;;5035312;28;20240;-70
2022/07/19 12:15:55;;;;;;;5.28;3.63;;;37.20;43.10;;;;;;5045469;28;20597;-69
2022/07/19 12:18:43;;;;;;;4.30;4.00;;;37.20;42.90;;;;;;5037094;28;20235;-70
2022/07/19 12:21:18;;;;;;;4.90;4.50;;;37.20;42.90;;;;;;5027180;28;20311;-70
2022/07/19 12:24:15;;;;;;;4.68;4.28;;;37.30;42.50;;;;;;5045526;28;20697;-69
2022/07/19 12:26:57;;;;;;;5.35;4.10;;;37.30;42.80;;;;;;5060519;28;20245;-70
2022/07/19 12:29:35;;;;;;;4.32;3.90;;;37.40;42.10;;;;;;5044860;28;20215;-69
2022/07/19 12:32:08;;;;;;;4.00;3.80;;;37.60;42.70;;;;;;5027907;28;20242;-70
2022/07/19 12:34:46;;;;;;;4.90;4.60;;;37.50;42.40;;;;;;5045540;28;20218;-70
2022/07/19 12:37:32;;;;;;;4.53;4.22;;;37.30;42.30;;;;;;5057765;28;20229;-70
2022/07/19 12:40:23;;;;;;;4.32;4.03;;;37.20;42.70;;;;;;5026368;28;20220;-69
2022/07/19 12:42:59;;;;;;;5.72;4.15;;;37.30;42.80;;;;;;5035614;28;20309;-71
2022/07/19 12:45:30;;;;;;;4.70;4.40;;;37.30;43.00;;;;;;5037409;28;20222;-69
2022/07/19 12:47:56;;;;;;;4.30;4.10;;;37.20;42.90;;;;;;5062235;28;20784;-70
2022/07/19 12:50:26;;;;;;;4.53;4.15;;;37.20;42.50;;;;;;5040856;28;20223;-68
2022/07/19 12:52:54;;;;;;;4.68;4.40;;;37.40;42.70;;;;;;5027917;28;20255;-70
2022/07/19 12:55:22;;;;;;;4.65;4.35;;;37.70;42.80;;;;;;5041148;28;20272;-70